sensor_id;sensor_type;location;lat;lon;timestamp;P1;durP1;ratioP1;P2;durP2;ratioP2
75542;SDS011;64129;53.508;10.476;2023-02-01T00:00:57;12.02;;;1.75;;
75542;SDS011;64129;53.508;10.476;2023-02-01T00:03:24;11.23;;;2.15;;
75542;SDS011;64129;53.508;10.476;2023-02-01T00:05:57;17.05;;;4.32;;
75542;SDS011;64129;53.508;10.476;2023-02-01T00:08:24;14.50;;;1.70;;
75542;SDS011;64129;53.508;10.476;2023-02-01T00:10:58;11.88;;;1.88;;
75542;SDS011;64129;53.508;10.476;2023-02-01T00:13:27;13.48;;;3.38;;
75542;SDS011;64129;53.508;10.476;2023-02-01T00:16:01;13.20;;;2.70;;
75542;SDS011;64129;53.508;10.476;2023-02-01T00:18:28;13.57;;;2.70;;
75542;SDS011;64129;53.508;10.476;2023-02-01T00:20:55;12.95;;;1.92;;
75542;SDS011;64129;53.508;10.476;2023-02-01T00:23:21;7.05;;;2.65;;
75542;SDS011;64129;53.508;10.476;2023-02-01T00:25:48;8.10;;;1.73;;
75542;SDS011;64129;53.508;10.476;2023-02-01T00:28:14;11.48;;;2.15;;
75542;SDS011;64129;53.508;10.476;2023-02-01T00:30:41;11.52;;;3.22;;
75542;SDS011;64129;53.508;10.476;2023-02-01T00:33:07;6.63;;;1.38;;
75542;SDS011;64129;53.508;10.476;2023-02-01T00:35:34;10.50;;;2.28;;
75542;SDS011;64129;53.508;10.476;2023-02-01T00:38:01;4.78;;;1.30;;
75542;SDS011;64129;53.508;10.476;2023-02-01T00:40:28;6.85;;;1.25;;
75542;SDS011;64129;53.508;10.476;2023-02-01T00:42:54;8.25;;;1.92;;
75542;SDS011;64129;53.508;10.476;2023-02-01T00:45:23;8.32;;;1.58;;
75542;SDS011;64129;53.508;10.476;2023-02-01T00:47:49;8.50;;;1.48;;
75542;SDS011;64129;53.508;10.476;2023-02-01T00:50:16;17.85;;;2.95;;
75542;SDS011;64129;53.508;10.476;2023-02-01T00:52:42;13.55;;;2.63;;
75542;SDS011;64129;53.508;10.476;2023-02-01T00:55:09;14.85;;;2.85;;
75542;SDS011;64129;53.508;10.476;2023-02-01T00:57:35;6.60;;;1.10;;
75542;SDS011;64129;53.508;10.476;2023-02-01T01:00:02;10.10;;;1.85;;
75542;SDS011;64129;53.508;10.476;2023-02-01T01:02:30;12.02;;;2.47;;
75542;SDS011;64129;53.508;10.476;2023-02-01T01:04:56;10.07;;;2.08;;
75542;SDS011;64129;53.508;10.476;2023-02-01T01:07:23;7.78;;;2.13;;
75542;SDS011;64129;53.508;10.476;2023-02-01T01:09:49;11.18;;;2.75;;
75542;SDS011;64129;53.508;10.476;2023-02-01T01:12:16;10.38;;;2.88;;
75542;SDS011;64129;53.508;10.476;2023-02-01T01:14:42;13.38;;;3.45;;
75542;SDS011;64129;53.508;10.476;2023-02-01T01:17:09;14.30;;;2.80;;
75542;SDS011;64129;53.508;10.476;2023-02-01T01:19:35;13.27;;;2.42;;
75542;SDS011;64129;53.508;10.476;2023-02-01T01:22:02;16.00;;;3.63;;
75542;SDS011;64129;53.508;10.476;2023-02-01T01:24:28;11.90;;;3.25;;
75542;SDS011;64129;53.508;10.476;2023-02-01T01:26:55;14.63;;;2.45;;
75542;SDS011;64129;53.508;10.476;2023-02-01T01:29:22;10.20;;;2.38;;
75542;SDS011;64129;53.508;10.476;2023-02-01T01:31:48;10.90;;;1.67;;
75542;SDS011;64129;53.508;10.476;2023-02-01T01:34:15;13.20;;;3.13;;
75542;SDS011;64129;53.508;10.476;2023-02-01T01:36:41;13.30;;;2.70;;
75542;SDS011;64129;53.508;10.476;2023-02-01T01:39:08;16.67;;;3.22;;
75542;SDS011;64129;53.508;10.476;2023-02-01T01:41:34;25.40;;;4.03;;
75542;SDS011;64129;53.508;10.476;2023-02-01T01:47:15;10.73;;;2.20;;
75542;SDS011;64129;53.508;10.476;2023-02-01T01:49:42;9.45;;;1.90;;
75542;SDS011;64129;53.508;10.476;2023-02-01T01:52:10;17.23;;;2.45;;
75542;SDS011;64129;53.508;10.476;2023-02-01T01:54:39;17.13;;;2.45;;
75542;SDS011;64129;53.508;10.476;2023-02-01T01:57:11;18.23;;;3.67;;
75542;SDS011;64129;53.508;10.476;2023-02-01T01:59:47;15.07;;;2.67;;
75542;SDS011;64129;53.508;10.476;2023-02-01T02:02:19;14.15;;;2.97;;
75542;SDS011;64129;53.508;10.476;2023-02-01T02:04:46;18.67;;;2.80;;
75542;SDS011;64129;53.508;10.476;2023-02-01T02:07:17;16.85;;;2.85;;
75542;SDS011;64129;53.508;10.476;2023-02-01T02:09:47;11.00;;;2.38;;
75542;SDS011;64129;53.508;10.476;2023-02-01T02:12:25;13.18;;;2.67;;
75542;SDS011;64129;53.508;10.476;2023-02-01T02:14:51;17.80;;;3.47;;
75542;SDS011;64129;53.508;10.476;2023-02-01T02:30:52;12.52;;;2.53;;
75542;SDS011;64129;53.508;10.476;2023-02-01T02:42:10;14.68;;;2.55;;
75542;SDS011;64129;53.508;10.476;2023-02-01T02:45:07;6.30;;;2.17;;
75542;SDS011;64129;53.508;10.476;2023-02-01T02:50:55;9.95;;;2.13;;
75542;SDS011;64129;53.508;10.476;2023-02-01T02:53:56;18.02;;;3.58;;
75542;SDS011;64129;53.508;10.476;2023-02-01T02:56:46;14.98;;;2.38;;
75542;SDS011;64129;53.508;10.476;2023-02-01T03:02:19;8.45;;;2.22;;
75542;SDS011;64129;53.508;10.476;2023-02-01T03:05:06;16.02;;;2.42;;
75542;SDS011;64129;53.508;10.476;2023-02-01T03:07:51;20.55;;;2.88;;
75542;SDS011;64129;53.508;10.476;2023-02-01T03:13:18;14.40;;;3.10;;
75542;SDS011;64129;53.508;10.476;2023-02-01T03:16:12;17.10;;;3.00;;
75542;SDS011;64129;53.508;10.476;2023-02-01T03:18:51;15.70;;;2.92;;
75542;SDS011;64129;53.508;10.476;2023-02-01T03:21:28;8.43;;;1.42;;
75542;SDS011;64129;53.508;10.476;2023-02-01T03:24:00;18.50;;;2.85;;
75542;SDS011;64129;53.508;10.476;2023-02-01T03:26:34;13.80;;;2.72;;
75542;SDS011;64129;53.508;10.476;2023-02-01T03:29:08;13.30;;;2.45;;
75542;SDS011;64129;53.508;10.476;2023-02-01T03:31:43;13.00;;;1.92;;
75542;SDS011;64129;53.508;10.476;2023-02-01T03:34:11;12.82;;;2.63;;
75542;SDS011;64129;53.508;10.476;2023-02-01T03:36:41;13.23;;;2.65;;
75542;SDS011;64129;53.508;10.476;2023-02-01T03:39:45;16.35;;;3.30;;
75542;SDS011;64129;53.508;10.476;2023-02-01T03:42:19;16.02;;;2.97;;
75542;SDS011;64129;53.508;10.476;2023-02-01T03:44:54;17.25;;;3.03;;
75542;SDS011;64129;53.508;10.476;2023-02-01T03:47:37;11.13;;;2.25;;
75542;SDS011;64129;53.508;10.476;2023-02-01T03:50:10;12.93;;;2.00;;
75542;SDS011;64129;53.508;10.476;2023-02-01T03:52:42;8.40;;;1.67;;
75542;SDS011;64129;53.508;10.476;2023-02-01T03:55:14;8.05;;;1.38;;
75542;SDS011;64129;53.508;10.476;2023-02-01T03:57:44;10.18;;;2.10;;
75542;SDS011;64129;53.508;10.476;2023-02-01T04:00:16;4.60;;;1.20;;
75542;SDS011;64129;53.508;10.476;2023-02-01T04:02:51;5.00;;;0.98;;
75542;SDS011;64129;53.508;10.476;2023-02-01T04:05:18;5.18;;;0.88;;
75542;SDS011;64129;53.508;10.476;2023-02-01T04:07:53;10.75;;;1.48;;
75542;SDS011;64129;53.508;10.476;2023-02-01T04:10:20;6.85;;;1.70;;
75542;SDS011;64129;53.508;10.476;2023-02-01T04:12:47;6.28;;;0.90;;
75542;SDS011;64129;53.508;10.476;2023-02-01T04:15:13;4.97;;;0.73;;
75542;SDS011;64129;53.508;10.476;2023-02-01T04:17:40;6.40;;;1.52;;
75542;SDS011;64129;53.508;10.476;2023-02-01T04:20:07;2.40;;;0.60;;
75542;SDS011;64129;53.508;10.476;2023-02-01T04:25:01;2.92;;;1.00;;
75542;SDS011;64129;53.508;10.476;2023-02-01T04:27:28;4.38;;;1.00;;
75542;SDS011;64129;53.508;10.476;2023-02-01T04:29:55;7.85;;;1.27;;
75542;SDS011;64129;53.508;10.476;2023-02-01T04:32:23;4.55;;;1.40;;
75542;SDS011;64129;53.508;10.476;2023-02-01T04:34:50;7.30;;;1.50;;
75542;SDS011;64129;53.508;10.476;2023-02-01T04:37:16;8.13;;;1.60;;
75542;SDS011;64129;53.508;10.476;2023-02-01T04:39:43;10.27;;;2.63;;
75542;SDS011;64129;53.508;10.476;2023-02-01T04:42:09;7.15;;;0.98;;
75542;SDS011;64129;53.508;10.476;2023-02-01T04:44:36;7.35;;;1.45;;
75542;SDS011;64129;53.508;10.476;2023-02-01T04:47:05;6.07;;;1.00;;
75542;SDS011;64129;53.508;10.476;2023-02-01T04:49:32;10.00;;;2.35;;
75542;SDS011;64129;53.508;10.476;2023-02-01T04:51:58;9.65;;;2.38;;
75542;SDS011;64129;53.508;10.476;2023-02-01T04:54:25;8.02;;;1.25;;
75542;SDS011;64129;53.508;10.476;2023-02-01T04:56:51;7.07;;;1.27;;
75542;SDS011;64129;53.508;10.476;2023-02-01T04:59:18;3.67;;;0.90;;
75542;SDS011;64129;53.508;10.476;2023-02-01T05:01:44;5.35;;;1.05;;
75542;SDS011;64129;53.508;10.476;2023-02-01T05:04:13;5.80;;;1.33;;
75542;SDS011;64129;53.508;10.476;2023-02-01T05:06:40;10.80;;;2.25;;
75542;SDS011;64129;53.508;10.476;2023-02-01T05:09:06;3.38;;;0.80;;
75542;SDS011;64129;53.508;10.476;2023-02-01T05:11:33;9.57;;;1.55;;
75542;SDS011;64129;53.508;10.476;2023-02-01T05:14:18;4.68;;;1.27;;
75542;SDS011;64129;53.508;10.476;2023-02-01T05:16:45;6.45;;;1.85;;
75542;SDS011;64129;53.508;10.476;2023-02-01T05:19:11;3.92;;;1.52;;
75542;SDS011;64129;53.508;10.476;2023-02-01T05:21:38;4.90;;;0.88;;
75542;SDS011;64129;53.508;10.476;2023-02-01T05:24:04;10.73;;;1.40;;
75542;SDS011;64129;53.508;10.476;2023-02-01T05:26:40;6.95;;;1.00;;
75542;SDS011;64129;53.508;10.476;2023-02-01T05:29:07;3.20;;;0.80;;
75542;SDS011;64129;53.508;10.476;2023-02-01T05:31:34;1.98;;;0.75;;
75542;SDS011;64129;53.508;10.476;2023-02-01T05:34:02;6.65;;;1.38;;
75542;SDS011;64129;53.508;10.476;2023-02-01T05:36:28;1.67;;;0.47;;
75542;SDS011;64129;53.508;10.476;2023-02-01T05:38:55;2.55;;;0.50;;
75542;SDS011;64129;53.508;10.476;2023-02-01T05:41:21;2.28;;;0.55;;
75542;SDS011;64129;53.508;10.476;2023-02-01T05:43:48;0.38;;;0.35;;
75542;SDS011;64129;53.508;10.476;2023-02-01T05:46:15;3.40;;;0.65;;
75542;SDS011;64129;53.508;10.476;2023-02-01T05:48:41;3.30;;;0.75;;
75542;SDS011;64129;53.508;10.476;2023-02-01T05:51:09;0.20;;;0.20;;
75542;SDS011;64129;53.508;10.476;2023-02-01T05:53:36;0.85;;;0.30;;
75542;SDS011;64129;53.508;10.476;2023-02-01T05:56:03;2.47;;;0.50;;
75542;SDS011;64129;53.508;10.476;2023-02-01T05:58:29;1.67;;;0.52;;
75542;SDS011;64129;53.508;10.476;2023-02-01T06:00:58;1.58;;;0.60;;
75542;SDS011;64129;53.508;10.476;2023-02-01T06:03:26;1.52;;;0.38;;
75542;SDS011;64129;53.508;10.476;2023-02-01T06:05:52;0.63;;;0.20;;
75542;SDS011;64129;53.508;10.476;2023-02-01T06:08:19;1.85;;;0.15;;
75542;SDS011;64129;53.508;10.476;2023-02-01T06:10:45;0.30;;;0.30;;
75542;SDS011;64129;53.508;10.476;2023-02-01T06:13:12;0.43;;;0.20;;
75542;SDS011;64129;53.508;10.476;2023-02-01T06:15:39;0.50;;;0.13;;
75542;SDS011;64129;53.508;10.476;2023-02-01T06:18:07;1.00;;;0.30;;
75542;SDS011;64129;53.508;10.476;2023-02-01T06:20:34;1.67;;;0.30;;
75542;SDS011;64129;53.508;10.476;2023-02-01T06:23:00;1.88;;;0.47;;
75542;SDS011;64129;53.508;10.476;2023-02-01T06:25:27;0.80;;;0.32;;
75542;SDS011;64129;53.508;10.476;2023-02-01T06:27:53;0.77;;;0.40;;
75542;SDS011;64129;53.508;10.476;2023-02-01T06:30:20;2.33;;;0.77;;
75542;SDS011;64129;53.508;10.476;2023-02-01T06:32:49;1.90;;;0.60;;
75542;SDS011;64129;53.508;10.476;2023-02-01T06:35:19;1.20;;;0.75;;
75542;SDS011;64129;53.508;10.476;2023-02-01T06:37:46;1.60;;;0.50;;
75542;SDS011;64129;53.508;10.476;2023-02-01T06:40:13;1.00;;;0.60;;
75542;SDS011;64129;53.508;10.476;2023-02-01T06:42:39;1.38;;;0.45;;
75542;SDS011;64129;53.508;10.476;2023-02-01T06:45:06;0.90;;;0.50;;
75542;SDS011;64129;53.508;10.476;2023-02-01T06:47:33;2.15;;;0.50;;
75542;SDS011;64129;53.508;10.476;2023-02-01T06:49:59;1.45;;;1.02;;
75542;SDS011;64129;53.508;10.476;2023-02-01T06:52:26;0.43;;;0.40;;
75542;SDS011;64129;53.508;10.476;2023-02-01T06:54:52;3.55;;;0.63;;
75542;SDS011;64129;53.508;10.476;2023-02-01T06:57:19;1.02;;;0.73;;
75542;SDS011;64129;53.508;10.476;2023-02-01T06:59:45;2.47;;;0.73;;
75542;SDS011;64129;53.508;10.476;2023-02-01T07:02:12;1.95;;;0.80;;
75542;SDS011;64129;53.508;10.476;2023-02-01T07:04:38;5.82;;;0.93;;
75542;SDS011;64129;53.508;10.476;2023-02-01T07:07:05;5.10;;;1.13;;
75542;SDS011;64129;53.508;10.476;2023-02-01T07:09:31;4.63;;;1.20;;
75542;SDS011;64129;53.508;10.476;2023-02-01T07:11:58;3.63;;;1.05;;
75542;SDS011;64129;53.508;10.476;2023-02-01T07:14:24;2.17;;;1.33;;
75542;SDS011;64129;53.508;10.476;2023-02-01T07:16:51;3.60;;;1.00;;
75542;SDS011;64129;53.508;10.476;2023-02-01T07:19:17;5.88;;;1.05;;
75542;SDS011;64129;53.508;10.476;2023-02-01T07:21:44;5.47;;;1.30;;
75542;SDS011;64129;53.508;10.476;2023-02-01T07:24:10;2.38;;;1.33;;
75542;SDS011;64129;53.508;10.476;2023-02-01T07:26:37;4.85;;;1.80;;
75542;SDS011;64129;53.508;10.476;2023-02-01T07:29:03;6.05;;;1.75;;
75542;SDS011;64129;53.508;10.476;2023-02-01T07:31:30;2.80;;;1.13;;
75542;SDS011;64129;53.508;10.476;2023-02-01T07:33:56;5.57;;;1.48;;
75542;SDS011;64129;53.508;10.476;2023-02-01T07:36:24;7.40;;;1.40;;
75542;SDS011;64129;53.508;10.476;2023-02-01T07:38:50;8.93;;;1.95;;
75542;SDS011;64129;53.508;10.476;2023-02-01T07:41:20;4.22;;;1.25;;
75542;SDS011;64129;53.508;10.476;2023-02-01T07:43:47;8.10;;;1.88;;
75542;SDS011;64129;53.508;10.476;2023-02-01T07:46:13;7.95;;;1.95;;
75542;SDS011;64129;53.508;10.476;2023-02-01T07:48:41;7.22;;;1.77;;
75542;SDS011;64129;53.508;10.476;2023-02-01T07:51:14;13.48;;;2.22;;
75542;SDS011;64129;53.508;10.476;2023-02-01T07:53:42;6.95;;;1.70;;
75542;SDS011;64129;53.508;10.476;2023-02-01T07:56:12;7.70;;;1.65;;
75542;SDS011;64129;53.508;10.476;2023-02-01T07:58:41;11.20;;;1.60;;
75542;SDS011;64129;53.508;10.476;2023-02-01T08:01:15;9.15;;;2.60;;
75542;SDS011;64129;53.508;10.476;2023-02-01T08:03:51;8.45;;;2.45;;
75542;SDS011;64129;53.508;10.476;2023-02-01T08:06:22;6.35;;;1.35;;
75542;SDS011;64129;53.508;10.476;2023-02-01T08:08:49;2.85;;;1.20;;
75542;SDS011;64129;53.508;10.476;2023-02-01T08:11:16;5.47;;;1.70;;
75542;SDS011;64129;53.508;10.476;2023-02-01T08:13:44;10.68;;;1.75;;
75542;SDS011;64129;53.508;10.476;2023-02-01T08:16:11;6.93;;;1.77;;
75542;SDS011;64129;53.508;10.476;2023-02-01T08:21:12;6.07;;;1.17;;
75542;SDS011;64129;53.508;10.476;2023-02-01T08:23:42;3.47;;;1.23;;
75542;SDS011;64129;53.508;10.476;2023-02-01T08:28:36;12.43;;;2.33;;
75542;SDS011;64129;53.508;10.476;2023-02-01T08:31:04;15.43;;;2.42;;
75542;SDS011;64129;53.508;10.476;2023-02-01T08:33:32;12.00;;;2.63;;
75542;SDS011;64129;53.508;10.476;2023-02-01T08:36:06;10.35;;;2.00;;
75542;SDS011;64129;53.508;10.476;2023-02-01T08:38:37;5.50;;;1.88;;
75542;SDS011;64129;53.508;10.476;2023-02-01T08:41:10;7.90;;;2.70;;
75542;SDS011;64129;53.508;10.476;2023-02-01T08:43:38;12.30;;;2.75;;
75542;SDS011;64129;53.508;10.476;2023-02-01T08:46:06;17.65;;;3.28;;
75542;SDS011;64129;53.508;10.476;2023-02-01T08:48:33;13.73;;;3.17;;
75542;SDS011;64129;53.508;10.476;2023-02-01T08:51:01;18.92;;;3.45;;
75542;SDS011;64129;53.508;10.476;2023-02-01T08:53:29;14.07;;;3.05;;
75542;SDS011;64129;53.508;10.476;2023-02-01T08:55:56;13.30;;;2.47;;
75542;SDS011;64129;53.508;10.476;2023-02-01T08:58:23;13.60;;;2.55;;
75542;SDS011;64129;53.508;10.476;2023-02-01T09:00:49;12.18;;;2.85;;
75542;SDS011;64129;53.508;10.476;2023-02-01T09:03:16;12.93;;;2.47;;
75542;SDS011;64129;53.508;10.476;2023-02-01T09:05:43;9.43;;;2.47;;
75542;SDS011;64129;53.508;10.476;2023-02-01T09:08:15;10.65;;;2.15;;
75542;SDS011;64129;53.508;10.476;2023-02-01T09:10:41;9.80;;;1.98;;
75542;SDS011;64129;53.508;10.476;2023-02-01T09:13:08;7.95;;;1.45;;
75542;SDS011;64129;53.508;10.476;2023-02-01T09:15:35;11.45;;;1.83;;
75542;SDS011;64129;53.508;10.476;2023-02-01T09:18:03;13.07;;;1.70;;
75542;SDS011;64129;53.508;10.476;2023-02-01T09:20:30;14.02;;;2.25;;
75542;SDS011;64129;53.508;10.476;2023-02-01T09:22:56;18.13;;;3.13;;
75542;SDS011;64129;53.508;10.476;2023-02-01T09:25:23;7.43;;;1.52;;
75542;SDS011;64129;53.508;10.476;2023-02-01T09:27:49;15.20;;;2.67;;
75542;SDS011;64129;53.508;10.476;2023-02-01T09:30:16;17.38;;;3.13;;
75542;SDS011;64129;53.508;10.476;2023-02-01T09:32:43;9.95;;;2.13;;
75542;SDS011;64129;53.508;10.476;2023-02-01T09:35:09;18.83;;;3.28;;
75542;SDS011;64129;53.508;10.476;2023-02-01T09:37:36;15.23;;;2.60;;
75542;SDS011;64129;53.508;10.476;2023-02-01T09:40:03;15.27;;;2.88;;
75542;SDS011;64129;53.508;10.476;2023-02-01T09:45:24;20.63;;;2.33;;
75542;SDS011;64129;53.508;10.476;2023-02-01T09:48:00;6.75;;;1.35;;
75542;SDS011;64129;53.508;10.476;2023-02-01T09:50:34;16.05;;;3.63;;
75542;SDS011;64129;53.508;10.476;2023-02-01T09:55:53;5.47;;;1.20;;
75542;SDS011;64129;53.508;10.476;2023-02-01T10:01:11;8.10;;;1.95;;
75542;SDS011;64129;53.508;10.476;2023-02-01T10:03:50;8.07;;;1.80;;
75542;SDS011;64129;53.508;10.476;2023-02-01T10:15:20;15.13;;;2.35;;
75542;SDS011;64129;53.508;10.476;2023-02-01T10:26:23;11.52;;;2.60;;
75542;SDS011;64129;53.508;10.476;2023-02-01T10:28:53;19.45;;;2.83;;
75542;SDS011;64129;53.508;10.476;2023-02-01T10:31:24;13.85;;;2.85;;
75542;SDS011;64129;53.508;10.476;2023-02-01T10:33:56;11.07;;;2.05;;
75542;SDS011;64129;53.508;10.476;2023-02-01T10:36:32;10.73;;;2.00;;
75542;SDS011;64129;53.508;10.476;2023-02-01T10:39:02;15.38;;;2.47;;
75542;SDS011;64129;53.508;10.476;2023-02-01T10:41:31;16.15;;;2.83;;
75542;SDS011;64129;53.508;10.476;2023-02-01T10:44:02;10.90;;;1.95;;
75542;SDS011;64129;53.508;10.476;2023-02-01T10:46:32;14.07;;;2.53;;
75542;SDS011;64129;53.508;10.476;2023-02-01T10:49:00;16.88;;;2.10;;
75542;SDS011;64129;53.508;10.476;2023-02-01T10:54:20;3.70;;;1.25;;
75542;SDS011;64129;53.508;10.476;2023-02-01T10:56:49;12.30;;;1.85;;
75542;SDS011;64129;53.508;10.476;2023-02-01T10:59:17;6.55;;;1.80;;
75542;SDS011;64129;53.508;10.476;2023-02-01T11:01:46;8.75;;;2.30;;
75542;SDS011;64129;53.508;10.476;2023-02-01T11:04:16;12.52;;;2.03;;
75542;SDS011;64129;53.508;10.476;2023-02-01T11:06:47;12.70;;;1.85;;
75542;SDS011;64129;53.508;10.476;2023-02-01T11:09:20;14.55;;;2.40;;
75542;SDS011;64129;53.508;10.476;2023-02-01T11:16:55;8.95;;;2.22;;
75542;SDS011;64129;53.508;10.476;2023-02-01T11:19:24;10.18;;;1.98;;
75542;SDS011;64129;53.508;10.476;2023-02-01T11:21:51;10.65;;;2.88;;
75542;SDS011;64129;53.508;10.476;2023-02-01T11:26:53;9.98;;;1.95;;
75542;SDS011;64129;53.508;10.476;2023-02-01T11:29:22;13.63;;;2.08;;
75542;SDS011;64129;53.508;10.476;2023-02-01T11:31:59;8.80;;;1.85;;
75542;SDS011;64129;53.508;10.476;2023-02-01T11:34:28;14.07;;;2.47;;
75542;SDS011;64129;53.508;10.476;2023-02-01T11:37:04;6.10;;;1.60;;
75542;SDS011;64129;53.508;10.476;2023-02-01T11:39:53;12.68;;;2.35;;
75542;SDS011;64129;53.508;10.476;2023-02-01T11:42:22;10.07;;;1.13;;
75542;SDS011;64129;53.508;10.476;2023-02-01T11:44:48;12.45;;;2.00;;
75542;SDS011;64129;53.508;10.476;2023-02-01T11:50:00;9.43;;;1.85;;
75542;SDS011;64129;53.508;10.476;2023-02-01T11:57:38;8.55;;;2.45;;
75542;SDS011;64129;53.508;10.476;2023-02-01T12:00:26;7.72;;;1.88;;
75542;SDS011;64129;53.508;10.476;2023-02-01T12:03:13;9.35;;;1.30;;
75542;SDS011;64129;53.508;10.476;2023-02-01T12:25:11;7.20;;;1.35;;
75542;SDS011;64129;53.508;10.476;2023-02-01T12:41:45;6.28;;;1.50;;
75542;SDS011;64129;53.508;10.476;2023-02-01T12:44:30;4.05;;;0.95;;
75542;SDS011;64129;53.508;10.476;2023-02-01T12:47:06;4.10;;;1.60;;
75542;SDS011;64129;53.508;10.476;2023-02-01T12:55:00;5.25;;;1.52;;
75542;SDS011;64129;53.508;10.476;2023-02-01T12:57:33;9.00;;;2.38;;
75542;SDS011;64129;53.508;10.476;2023-02-01T13:02:55;10.20;;;1.52;;
75542;SDS011;64129;53.508;10.476;2023-02-01T13:05:34;5.30;;;1.30;;
75542;SDS011;64129;53.508;10.476;2023-02-01T13:08:14;4.07;;;1.40;;
75542;SDS011;64129;53.508;10.476;2023-02-01T13:10:52;2.40;;;1.00;;
75542;SDS011;64129;53.508;10.476;2023-02-01T13:13:35;1.65;;;0.90;;
75542;SDS011;64129;53.508;10.476;2023-02-01T13:16:19;0.63;;;0.63;;
75542;SDS011;64129;53.508;10.476;2023-02-01T13:18:54;3.15;;;1.05;;
75542;SDS011;64129;53.508;10.476;2023-02-01T13:21:27;1.02;;;0.63;;
75542;SDS011;64129;53.508;10.476;2023-02-01T13:23:59;2.13;;;0.52;;
75542;SDS011;64129;53.508;10.476;2023-02-01T13:26:25;1.25;;;0.55;;
75542;SDS011;64129;53.508;10.476;2023-02-01T13:40:40;1.35;;;0.80;;
75542;SDS011;64129;53.508;10.476;2023-02-01T13:43:12;2.53;;;0.70;;
75542;SDS011;64129;53.508;10.476;2023-02-01T13:45:43;1.02;;;0.60;;
75542;SDS011;64129;53.508;10.476;2023-02-01T13:51:12;0.47;;;0.20;;
75542;SDS011;64129;53.508;10.476;2023-02-01T13:53:44;0.57;;;0.35;;
75542;SDS011;64129;53.508;10.476;2023-02-01T13:56:15;0.65;;;0.38;;
75542;SDS011;64129;53.508;10.476;2023-02-01T13:58:45;0.52;;;0.32;;
75542;SDS011;64129;53.508;10.476;2023-02-01T14:01:31;1.40;;;0.60;;
75542;SDS011;64129;53.508;10.476;2023-02-01T14:04:01;1.23;;;0.50;;
75542;SDS011;64129;53.508;10.476;2023-02-01T14:11:44;1.48;;;0.70;;
75542;SDS011;64129;53.508;10.476;2023-02-01T14:16:39;1.45;;;0.80;;
75542;SDS011;64129;53.508;10.476;2023-02-01T14:21:53;2.03;;;0.73;;
75542;SDS011;64129;53.508;10.476;2023-02-01T14:24:28;3.28;;;1.25;;
75542;SDS011;64129;53.508;10.476;2023-02-01T14:26:59;5.78;;;1.35;;
75542;SDS011;64129;53.508;10.476;2023-02-01T14:29:33;2.92;;;0.85;;
75542;SDS011;64129;53.508;10.476;2023-02-01T14:32:05;1.73;;;0.85;;
75542;SDS011;64129;53.508;10.476;2023-02-01T14:37:22;3.15;;;1.58;;
75542;SDS011;64129;53.508;10.476;2023-02-01T14:40:01;3.00;;;1.60;;
75542;SDS011;64129;53.508;10.476;2023-02-01T14:47:47;0.77;;;0.60;;
75542;SDS011;64129;53.508;10.476;2023-02-01T14:52:51;4.70;;;1.00;;
75542;SDS011;64129;53.508;10.476;2023-02-01T14:55:31;1.88;;;0.73;;
75542;SDS011;64129;53.508;10.476;2023-02-01T14:58:05;3.78;;;1.02;;
75542;SDS011;64129;53.508;10.476;2023-02-01T15:06:00;3.00;;;0.85;;
75542;SDS011;64129;53.508;10.476;2023-02-01T15:08:30;3.10;;;0.75;;
75542;SDS011;64129;53.508;10.476;2023-02-01T15:11:00;6.18;;;1.50;;
75542;SDS011;64129;53.508;10.476;2023-02-01T15:13:31;2.33;;;1.00;;
75542;SDS011;64129;53.508;10.476;2023-02-01T15:18:50;6.22;;;1.83;;
75542;SDS011;64129;53.508;10.476;2023-02-01T15:21:42;5.47;;;1.67;;
75542;SDS011;64129;53.508;10.476;2023-02-01T15:24:11;4.75;;;1.40;;
75542;SDS011;64129;53.508;10.476;2023-02-01T15:27:05;5.32;;;1.40;;
75542;SDS011;64129;53.508;10.476;2023-02-01T15:29:32;4.38;;;1.73;;
75542;SDS011;64129;53.508;10.476;2023-02-01T15:31:59;3.92;;;1.25;;
75542;SDS011;64129;53.508;10.476;2023-02-01T15:34:46;7.03;;;1.95;;
75542;SDS011;64129;53.508;10.476;2023-02-01T15:37:14;4.50;;;1.05;;
75542;SDS011;64129;53.508;10.476;2023-02-01T15:42:54;8.55;;;1.38;;
75542;SDS011;64129;53.508;10.476;2023-02-01T15:45:26;4.13;;;0.90;;
75542;SDS011;64129;53.508;10.476;2023-02-01T15:47:56;4.95;;;1.08;;
75542;SDS011;64129;53.508;10.476;2023-02-01T15:50:24;11.15;;;2.45;;
75542;SDS011;64129;53.508;10.476;2023-02-01T15:52:52;6.32;;;1.85;;
75542;SDS011;64129;53.508;10.476;2023-02-01T15:55:22;9.10;;;1.38;;
75542;SDS011;64129;53.508;10.476;2023-02-01T15:57:59;9.05;;;1.80;;
75542;SDS011;64129;53.508;10.476;2023-02-01T16:00:27;7.05;;;1.38;;
75542;SDS011;64129;53.508;10.476;2023-02-01T16:03:04;10.73;;;1.38;;
75542;SDS011;64129;53.508;10.476;2023-02-01T16:05:36;8.35;;;2.13;;
75542;SDS011;64129;53.508;10.476;2023-02-01T16:10:44;4.10;;;1.48;;
75542;SDS011;64129;53.508;10.476;2023-02-01T16:13:12;5.18;;;1.45;;
75542;SDS011;64129;53.508;10.476;2023-02-01T16:15:41;5.95;;;1.23;;
75542;SDS011;64129;53.508;10.476;2023-02-01T16:18:08;6.75;;;1.83;;
75542;SDS011;64129;53.508;10.476;2023-02-01T16:20:36;7.18;;;1.67;;
75542;SDS011;64129;53.508;10.476;2023-02-01T16:23:05;7.88;;;1.80;;
75542;SDS011;64129;53.508;10.476;2023-02-01T16:25:32;10.90;;;2.53;;
75542;SDS011;64129;53.508;10.476;2023-02-01T16:27:59;10.90;;;1.77;;
75542;SDS011;64129;53.508;10.476;2023-02-01T16:30:25;5.40;;;1.58;;
75542;SDS011;64129;53.508;10.476;2023-02-01T16:32:53;18.10;;;2.10;;
75542;SDS011;64129;53.508;10.476;2023-02-01T16:35:24;9.05;;;1.98;;
75542;SDS011;64129;53.508;10.476;2023-02-01T16:37:53;7.88;;;2.13;;
75542;SDS011;64129;53.508;10.476;2023-02-01T16:40:20;6.60;;;2.05;;
75542;SDS011;64129;53.508;10.476;2023-02-01T16:42:51;9.35;;;2.08;;
75542;SDS011;64129;53.508;10.476;2023-02-01T16:45:20;9.55;;;2.55;;
75542;SDS011;64129;53.508;10.476;2023-02-01T16:47:51;9.10;;;2.30;;
75542;SDS011;64129;53.508;10.476;2023-02-01T16:50:21;7.43;;;2.28;;
75542;SDS011;64129;53.508;10.476;2023-02-01T16:52:53;7.65;;;1.70;;
75542;SDS011;64129;53.508;10.476;2023-02-01T16:55:20;11.07;;;2.95;;
75542;SDS011;64129;53.508;10.476;2023-02-01T16:57:48;15.23;;;2.17;;
75542;SDS011;64129;53.508;10.476;2023-02-01T17:00:15;5.72;;;1.80;;
75542;SDS011;64129;53.508;10.476;2023-02-01T17:02:51;8.68;;;1.77;;
75542;SDS011;64129;53.508;10.476;2023-02-01T17:05:18;9.60;;;2.08;;
75542;SDS011;64129;53.508;10.476;2023-02-01T17:07:44;12.27;;;2.30;;
75542;SDS011;64129;53.508;10.476;2023-02-01T17:10:16;8.18;;;2.70;;
75542;SDS011;64129;53.508;10.476;2023-02-01T17:12:58;13.57;;;2.25;;
75542;SDS011;64129;53.508;10.476;2023-02-01T17:15:26;14.18;;;3.53;;
75542;SDS011;64129;53.508;10.476;2023-02-01T17:17:55;6.70;;;1.85;;
75542;SDS011;64129;53.508;10.476;2023-02-01T17:20:24;12.43;;;3.50;;
75542;SDS011;64129;53.508;10.476;2023-02-01T17:22:52;13.52;;;4.47;;
75542;SDS011;64129;53.508;10.476;2023-02-01T17:25:20;14.00;;;2.75;;
75542;SDS011;64129;53.508;10.476;2023-02-01T17:27:48;8.20;;;2.65;;
75542;SDS011;64129;53.508;10.476;2023-02-01T17:30:15;10.85;;;2.65;;
75542;SDS011;64129;53.508;10.476;2023-02-01T17:32:42;10.50;;;3.08;;
75542;SDS011;64129;53.508;10.476;2023-02-01T17:35:15;11.25;;;2.33;;
75542;SDS011;64129;53.508;10.476;2023-02-01T17:37:47;12.32;;;3.75;;
75542;SDS011;64129;53.508;10.476;2023-02-01T17:40:14;11.07;;;2.78;;
75542;SDS011;64129;53.508;10.476;2023-02-01T17:42:41;20.52;;;3.33;;